createdAt,value
2019-05-14T00:01:25.087Z,72.90
2019-05-14T00:03:58.801Z,73.20
2019-05-14T00:06:31.131Z,72.90
2019-05-14T00:09:03.011Z,73.30
2019-05-14T00:11:36.581Z,73.30
2019-05-14T00:14:11.448Z,72.80
2019-05-14T00:16:43.702Z,73.20
2019-05-14T00:19:15.687Z,72.20
2019-05-14T00:21:47.572Z,73.20
2019-05-14T00:24:19.114Z,73.00
2019-05-14T00:26:51.874Z,72.50
2019-05-14T00:29:23.523Z,73.00
2019-05-14T00:31:56.982Z,72.50
2019-05-14T00:34:51.449Z,72.90
2019-05-14T00:37:24.289Z,73.30
2019-05-14T00:39:57.203Z,73.80
2019-05-14T00:42:28.877Z,74.00
2019-05-14T00:45:03.370Z,73.10
2019-05-14T00:47:38.330Z,73.90
2019-05-14T00:50:12.983Z,73.10
2019-05-14T00:52:46.368Z,73.30
2019-05-14T00:55:22.096Z,71.50
2019-05-14T00:57:52.842Z,70.90
2019-05-14T01:00:28.519Z,71.70
2019-05-14T01:03:03.294Z,71.90
2019-05-14T01:05:35.082Z,70.40
2019-05-14T01:08:09.181Z,70.50
2019-05-14T01:10:44.441Z,70.90
2019-05-14T01:13:15.937Z,71.40
2019-05-14T01:15:52.184Z,71.40
2019-05-14T01:18:26.768Z,71.10
2019-05-14T01:21:01.306Z,70.90
2019-05-14T01:23:32.687Z,70.80
2019-05-14T01:26:05.780Z,71.70
2019-05-14T01:28:38.812Z,71.10
2019-05-14T01:31:14.768Z,70.80
2019-05-14T01:34:08.527Z,70.50
2019-05-14T01:36:42.466Z,70.70
2019-05-14T01:39:15.318Z,70.70
2019-05-14T01:41:51.501Z,70.60
2019-05-14T01:44:22.617Z,71.10
2019-05-14T01:46:55.149Z,70.80
2019-05-14T01:49:27.910Z,71.80
2019-05-14T01:52:01.766Z,72.80
2019-05-14T01:54:35.314Z,73.40
2019-05-14T01:57:08.770Z,74.10
2019-05-14T01:59:42.872Z,74.10
2019-05-14T02:02:15.359Z,74.20
2019-05-14T02:04:48.460Z,74.00
2019-05-14T02:07:22.139Z,74.20
2019-05-14T02:09:55.130Z,73.80
2019-05-14T02:12:31.560Z,73.50
2019-05-14T02:15:04.517Z,73.70
2019-05-14T02:17:37.614Z,73.30
2019-05-14T02:20:09.718Z,73.20
2019-05-14T02:22:42.756Z,72.90
2019-05-14T02:25:17.784Z,73.20
2019-05-14T02:27:51.779Z,72.90
2019-05-14T02:30:33.309Z,72.30
2019-05-14T02:32:59.592Z,72.30
2019-05-14T02:35:34.319Z,72.10
2019-05-14T02:38:05.901Z,72.50
2019-05-14T02:40:40.567Z,72.50
2019-05-14T02:43:12.536Z,72.10
2019-05-14T02:46:01.965Z,72.00
2019-05-14T02:48:20.255Z,71.50
2019-05-14T02:50:51.797Z,72.00
2019-05-14T02:53:23.383Z,72.70
2019-05-14T02:55:59.546Z,72.40
2019-05-14T02:58:31.232Z,71.90
2019-05-14T03:01:03.354Z,71.60
2019-05-14T03:03:40.189Z,71.40
2019-05-14T03:06:11.629Z,71.40
2019-05-14T03:08:44.615Z,71.30
2019-05-14T03:11:20.131Z,71.90
2019-05-14T03:13:53.366Z,72.10
2019-05-14T03:16:34.590Z,72.50
2019-05-14T03:19:03.289Z,73.00
2019-05-14T03:21:39.549Z,72.70
2019-05-14T03:24:13.071Z,72.20
2019-05-14T03:26:46.269Z,72.10
2019-05-14T03:29:25.790Z,72.30
2019-05-14T03:31:55.797Z,72.40
2019-05-14T03:34:32.232Z,72.50
2019-05-14T03:37:03.780Z,72.60
2019-05-14T03:39:35.080Z,72.70
2019-05-14T03:42:09.548Z,73.20
2019-05-14T03:44:41.197Z,73.70
2019-05-14T03:47:15.720Z,73.70
2019-05-14T03:49:49.829Z,73.90
2019-05-14T03:52:21.656Z,74.00
2019-05-14T03:54:53.015Z,74.20
2019-05-14T03:57:25.322Z,74.60
2019-05-14T03:59:59.805Z,74.60
2019-05-14T04:02:31.073Z,74.50
2019-05-14T04:05:05.551Z,74.00
2019-05-14T04:07:39.921Z,73.20
2019-05-14T04:10:12.102Z,72.80
2019-05-14T04:12:49.151Z,73.00
2019-05-14T04:15:25.634Z,72.40
2019-05-14T04:17:59.658Z,72.70
2019-05-14T04:20:35.220Z,72.40
2019-05-14T04:23:09.627Z,72.50
2019-05-14T04:25:43.101Z,72.00
2019-05-14T04:28:19.414Z,71.60
2019-05-14T04:31:11.903Z,71.90
2019-05-14T04:33:49.701Z,72.40
2019-05-14T04:36:22.941Z,72.20
2019-05-14T04:39:14.906Z,71.40
2019-05-14T04:41:49.892Z,71.60
2019-05-14T04:44:22.033Z,71.70
2019-05-14T04:47:21.490Z,71.60
2019-05-14T04:49:40.335Z,71.70
2019-05-14T04:52:12.959Z,71.60
2019-05-14T04:54:45.954Z,71.30
2019-05-14T04:57:20.310Z,70.40
2019-05-14T04:59:51.237Z,69.60
2019-05-14T05:02:23.063Z,69.70
2019-05-14T05:04:54.461Z,68.70
2019-05-14T05:07:29.863Z,68.80
2019-05-14T05:10:01.228Z,67.50
2019-05-14T05:12:33.551Z,65.30
2019-05-14T05:15:10.277Z,64.00
2019-05-14T05:17:48.543Z,65.20
2019-05-14T05:20:19.343Z,66.20
2019-05-14T05:22:50.044Z,65.40
2019-05-14T05:25:21.704Z,65.40
2019-05-14T05:27:56.430Z,63.90
2019-05-14T05:30:29.460Z,63.20
2019-05-14T05:33:01.010Z,62.40
2019-05-14T05:35:33.465Z,63.30
2019-05-14T05:38:04.866Z,64.00
2019-05-14T05:40:39.180Z,65.80
2019-05-14T05:43:12.903Z,66.10
2019-05-14T05:45:56.291Z,65.90
2019-05-14T05:48:28.973Z,65.40
2019-05-14T05:51:01.936Z,66.70
2019-05-14T05:53:34.030Z,67.20
2019-05-14T05:56:05.416Z,67.50
2019-05-14T05:58:39.785Z,66.80
2019-05-14T06:01:10.758Z,66.70
2019-05-14T06:03:42.145Z,67.80
2019-05-14T06:06:13.979Z,66.60
2019-05-14T06:08:45.267Z,67.20
2019-05-14T06:11:19.427Z,66.70
2019-05-14T06:13:51.529Z,67.40
2019-05-14T06:16:22.864Z,67.00
2019-05-14T06:18:55.656Z,67.00
2019-05-14T06:21:29.201Z,67.10
2019-05-14T06:24:02.856Z,66.40
2019-05-14T06:26:34.677Z,67.20
2019-05-14T06:29:08.456Z,66.80
2019-05-14T06:31:41.285Z,66.70
2019-05-14T06:34:14.316Z,65.50
2019-05-14T06:36:48.359Z,65.50
2019-05-14T06:39:19.448Z,65.80
2019-05-14T06:41:52.336Z,67.40
2019-05-14T06:44:23.797Z,66.10
2019-05-14T06:46:55.154Z,65.80
2019-05-14T06:49:29.118Z,66.70
2019-05-14T06:52:01.729Z,66.20
2019-05-14T06:54:38.472Z,66.00
2019-05-14T06:57:09.479Z,66.20
2019-05-14T06:59:40.834Z,66.80
2019-05-14T07:02:12.830Z,66.00
2019-05-14T07:04:44.916Z,67.30
2019-05-14T07:07:16.320Z,66.30
2019-05-14T07:09:48.813Z,65.40
2019-05-14T07:12:20.156Z,64.90
2019-05-14T07:15:13.796Z,62.50
2019-05-14T07:17:48.650Z,61.90
2019-05-14T07:20:20.093Z,62.90
2019-05-14T07:22:51.507Z,62.80
2019-05-14T07:25:23.899Z,61.30
2019-05-14T07:27:55.360Z,63.00
2019-05-14T07:30:29.038Z,62.80
2019-05-14T07:32:59.916Z,62.40
2019-05-14T07:35:31.916Z,62.60
2019-05-14T07:38:04.037Z,62.70
2019-05-14T07:40:38.586Z,60.80
2019-05-14T07:43:09.015Z,62.50
2019-05-14T07:45:41.639Z,62.90
2019-05-14T07:48:13.348Z,62.50
2019-05-14T07:50:48.172Z,63.80
2019-05-14T07:53:18.205Z,63.60
2019-05-14T07:55:49.547Z,64.00
2019-05-14T07:58:24.114Z,65.00
2019-05-14T08:00:55.604Z,65.40
2019-05-14T08:03:28.546Z,63.60
2019-05-14T08:06:00.436Z,64.00
2019-05-14T08:08:35.063Z,63.20
2019-05-14T08:11:08.441Z,61.00
2019-05-14T08:13:40.990Z,60.50
2019-05-14T08:16:12.967Z,57.80
2019-05-14T08:18:45.270Z,57.60
2019-05-14T08:21:19.370Z,56.50
2019-05-14T08:23:54.385Z,57.30
2019-05-14T08:26:26.272Z,59.70
2019-05-14T08:28:59.179Z,61.20
2019-05-14T08:31:31.474Z,59.40
2019-05-14T08:34:04.658Z,58.10
2019-05-14T08:36:39.242Z,59.20
2019-05-14T08:39:14.206Z,60.10
2019-05-14T08:41:55.814Z,62.60
2019-05-14T08:44:30.682Z,62.70
2019-05-14T08:48:04.215Z,64.20
2019-05-14T08:50:09.349Z,63.40
2019-05-14T08:52:48.291Z,63.60
2019-05-14T08:55:19.713Z,63.30
2019-05-14T08:58:01.922Z,62.90
2019-05-14T09:00:35.840Z,61.60
2019-05-14T09:03:09.192Z,63.60
2019-05-14T09:05:43.861Z,63.50
2019-05-14T09:08:19.281Z,61.60
2019-05-14T09:10:50.867Z,59.10
2019-05-14T09:13:25.925Z,60.30
2019-05-14T09:15:59.147Z,60.40
2019-05-14T09:18:33.932Z,60.20
2019-05-14T09:21:08.448Z,61.50
2019-05-14T09:23:39.663Z,63.90
2019-05-14T09:26:11.278Z,62.60
2019-05-14T09:28:42.928Z,61.40
2019-05-14T09:31:15.489Z,61.80
2019-05-14T09:33:49.563Z,62.40
2019-05-14T09:36:24.200Z,61.50
2019-05-14T09:38:58.535Z,61.40
2019-05-14T09:41:31.822Z,62.50
2019-05-14T09:44:04.174Z,61.00
2019-05-14T09:46:38.642Z,62.00
2019-05-14T09:49:09.806Z,62.00
2019-05-14T09:51:42.781Z,61.20
2019-05-14T09:54:19.147Z,60.80
2019-05-14T09:56:52.946Z,60.40
2019-05-14T09:59:27.875Z,59.80
2019-05-14T10:01:59.658Z,58.80
2019-05-14T10:04:33.338Z,58.80
2019-05-14T10:07:05.490Z,59.60
2019-05-14T10:09:39.051Z,59.70
2019-05-14T10:12:10.856Z,57.70
2019-05-14T10:14:43.597Z,58.60
2019-05-14T10:17:19.151Z,57.70
2019-05-14T10:19:50.753Z,58.30
2019-05-14T10:22:23.871Z,58.30
2019-05-14T10:24:58.251Z,58.50
2019-05-14T10:27:31.596Z,58.40
2019-05-14T10:30:03.657Z,57.40
2019-05-14T10:32:41.715Z,58.20
2019-05-14T10:35:15.720Z,58.90
2019-05-14T10:37:48.627Z,57.10
2019-05-14T10:40:41.443Z,54.10
2019-05-14T10:43:33.623Z,55.80
2019-05-14T10:46:05.482Z,57.50
2019-05-14T10:48:39.320Z,58.80
2019-05-14T10:51:13.529Z,58.80
2019-05-14T10:53:48.520Z,56.10
2019-05-14T10:56:21.931Z,54.70
2019-05-14T10:58:54.384Z,54.40
2019-05-14T11:01:28.252Z,54.90
2019-05-14T11:03:59.063Z,55.00
2019-05-14T11:06:31.862Z,55.40
2019-05-14T11:09:05.391Z,56.50
2019-05-14T11:11:58.885Z,58.50
2019-05-14T11:14:50.133Z,59.10
2019-05-14T11:17:41.581Z,59.50
2019-05-14T11:20:31.184Z,59.50
2019-05-14T11:25:54.772Z,58.50
2019-05-14T11:28:35.645Z,58.20
2019-05-14T11:31:19.599Z,57.90
2019-05-14T11:33:53.529Z,57.70
2019-05-14T11:36:50.051Z,58.70
2019-05-14T11:39:20.819Z,57.70
2019-05-14T11:41:55.802Z,58.60
2019-05-14T11:44:29.292Z,57.70
2019-05-14T11:47:02.769Z,58.60
2019-05-14T11:49:34.486Z,58.60
2019-05-14T11:52:11.072Z,59.80
2019-05-14T11:54:40.918Z,58.90
2019-05-14T11:57:13.163Z,57.50
2019-05-14T11:59:46.134Z,57.60
2019-05-14T12:02:19.993Z,58.10
2019-05-14T12:04:51.920Z,56.90
2019-05-14T12:07:23.463Z,56.10
2019-05-14T12:09:56.163Z,57.10
2019-05-14T12:12:28.841Z,57.30
2019-05-14T12:15:01.749Z,57.70
2019-05-14T12:17:39.369Z,55.90
2019-05-14T12:20:14.947Z,56.20
2019-05-14T12:22:48.704Z,57.50
2019-05-14T12:25:21.920Z,58.00
2019-05-14T12:27:59.158Z,58.20
2019-05-14T12:30:34.956Z,56.70
2019-05-14T12:33:07.582Z,56.40
2019-05-14T12:35:40.204Z,57.00
2019-05-14T12:38:11.927Z,58.00
2019-05-14T12:40:43.508Z,58.00
2019-05-14T12:43:15.661Z,57.80
2019-05-14T12:45:50.204Z,59.80
2019-05-14T12:48:22.874Z,59.10
2019-05-14T12:50:54.268Z,59.60
2019-05-14T12:53:48.811Z,59.90
2019-05-14T12:56:22.204Z,58.60
2019-05-14T12:58:58.110Z,57.70
2019-05-14T13:01:29.454Z,59.40
2019-05-14T13:04:01.187Z,58.50
2019-05-14T13:06:33.244Z,57.80
2019-05-14T13:09:05.784Z,58.20
2019-05-14T13:11:41.352Z,57.60
2019-05-14T13:14:10.694Z,56.60
2019-05-14T13:16:42.086Z,58.40
2019-05-14T13:19:13.983Z,59.90
2019-05-14T13:21:45.332Z,58.90
2019-05-14T13:24:18.510Z,59.60
2019-05-14T13:26:51.349Z,59.90
2019-05-14T13:29:28.751Z,59.60
2019-05-14T13:32:03.033Z,61.40
2019-05-14T13:34:35.069Z,59.20
2019-05-14T13:37:21.651Z,58.90
2019-05-14T13:39:59.653Z,58.50
2019-05-14T13:42:33.135Z,58.20
2019-05-14T13:45:10.652Z,58.50
2019-05-14T13:47:44.471Z,58.70
2019-05-14T13:50:19.426Z,59.30
2019-05-14T13:56:09.322Z,61.60
2019-05-14T13:58:43.900Z,60.90
2019-05-14T14:01:15.676Z,61.40
2019-05-14T14:04:02.219Z,62.20
2019-05-14T14:06:21.077Z,61.90
2019-05-14T14:08:54.150Z,62.60
2019-05-14T14:11:25.852Z,61.40
2019-05-14T14:14:01.097Z,61.60
2019-05-14T14:16:39.546Z,61.40
2019-05-14T14:19:13.416Z,61.50
2019-05-14T14:21:49.478Z,62.10
2019-05-14T14:24:23.870Z,61.60
2019-05-14T14:27:02.911Z,61.50
2019-05-14T14:29:39.343Z,63.40
2019-05-14T14:32:31.502Z,64.50
2019-05-14T14:35:08.960Z,63.40
2019-05-14T14:37:43.739Z,64.10
2019-05-14T14:40:22.191Z,64.20
2019-05-14T14:42:59.365Z,64.80
2019-05-14T14:45:32.402Z,65.40
2019-05-14T14:48:12.152Z,65.80
2019-05-14T14:50:45.661Z,66.10
2019-05-14T14:53:40.935Z,65.80
2019-05-14T14:56:00.398Z,65.40
2019-05-14T14:58:34.820Z,64.90
2019-05-14T15:01:08.773Z,64.20
2019-05-14T15:03:43.366Z,64.50
2019-05-14T15:06:30.340Z,64.00
2019-05-14T15:09:02.341Z,64.60
2019-05-14T15:11:35.726Z,64.60
2019-05-14T15:14:08.762Z,64.60
2019-05-14T15:16:42.270Z,65.30
2019-05-14T15:19:14.253Z,65.70
2019-05-14T15:21:48.928Z,65.80
2019-05-14T15:24:20.370Z,66.10
2019-05-14T15:26:52.591Z,66.40
2019-05-14T15:29:28.440Z,65.10
2019-05-14T15:34:55.131Z,63.20
2019-05-14T15:37:28.620Z,64.80
2019-05-14T15:40:04.450Z,64.60
2019-05-14T15:42:39.470Z,63.70
2019-05-14T15:45:12.997Z,64.10
2019-05-14T15:47:44.551Z,63.20
2019-05-14T15:50:20.066Z,63.70
2019-05-14T15:52:52.479Z,64.70
2019-05-14T15:55:26.173Z,63.40
2019-05-14T15:57:59.148Z,62.10
2019-05-14T16:00:30.731Z,63.00
2019-05-14T16:03:03.096Z,61.20
2019-05-14T16:05:40.092Z,61.30
2019-05-14T16:08:11.989Z,61.90
2019-05-14T16:10:44.153Z,62.20
2019-05-14T16:13:36.459Z,61.70
2019-05-14T16:16:10.648Z,62.50
2019-05-14T16:18:44.647Z,64.00
2019-05-14T16:21:18.051Z,63.90
2019-05-14T16:23:50.053Z,65.90
2019-05-14T16:26:22.520Z,65.80
2019-05-14T16:28:59.309Z,65.60
2019-05-14T16:31:31.493Z,67.00
2019-05-14T16:34:04.897Z,68.00
2019-05-14T16:36:41.383Z,66.90
2019-05-14T16:39:12.105Z,67.70
2019-05-14T16:41:43.426Z,66.40
2019-05-14T16:44:14.731Z,67.90
2019-05-14T16:46:45.987Z,67.70
2019-05-14T16:49:18.471Z,68.50
2019-05-14T16:51:50.057Z,70.60
2019-05-14T16:54:21.592Z,68.20
2019-05-14T16:56:53.660Z,68.20
2019-05-14T16:59:25.258Z,67.50
2019-05-14T17:01:58.467Z,66.90
2019-05-14T17:04:29.977Z,66.10
2019-05-14T17:07:04.192Z,65.80
2019-05-14T17:09:38.325Z,67.70
2019-05-14T17:12:09.142Z,67.90
2019-05-14T17:14:41.307Z,66.50
2019-05-14T17:17:13.305Z,64.20
2019-05-14T17:19:44.479Z,65.70
2019-05-14T17:22:27.784Z,65.10
2019-05-14T17:24:49.179Z,64.70
2019-05-14T17:27:21.604Z,65.80
2019-05-14T17:29:53.427Z,65.10
2019-05-14T17:32:26.320Z,64.40
2019-05-14T17:34:57.903Z,64.20
2019-05-14T17:37:29.058Z,65.40
2019-05-14T17:40:01.453Z,65.40
2019-05-14T17:42:35.149Z,64.00
2019-05-14T17:45:12.019Z,64.60
2019-05-14T17:47:44.549Z,64.60
2019-05-14T17:50:18.385Z,62.90
2019-05-14T17:52:56.480Z,64.00
2019-05-14T17:55:22.807Z,64.40
2019-05-14T17:57:59.125Z,65.00
2019-05-14T18:00:29.941Z,63.90
2019-05-14T18:03:01.378Z,64.60
2019-05-14T18:05:35.596Z,64.40
2019-05-14T18:08:09.146Z,64.50
2019-05-14T18:10:40.397Z,65.40
2019-05-14T18:13:33.058Z,65.70
2019-05-14T18:16:09.526Z,64.90
2019-05-14T18:18:40.970Z,65.30
2019-05-14T18:21:13.802Z,67.00
2019-05-14T18:24:06.155Z,66.90
2019-05-14T18:26:39.282Z,66.10
2019-05-14T18:29:11.758Z,66.60
2019-05-14T18:31:45.214Z,67.50
2019-05-14T18:34:16.158Z,66.50
2019-05-14T18:36:48.910Z,67.20
2019-05-14T18:39:21.961Z,67.40
2019-05-14T18:41:53.392Z,66.90
2019-05-14T18:44:28.363Z,66.90
2019-05-14T18:46:59.483Z,67.00
2019-05-14T18:49:32.830Z,67.40
2019-05-14T18:52:05.288Z,67.40
2019-05-14T18:54:38.749Z,68.20
2019-05-14T18:57:12.271Z,69.00
2019-05-14T18:59:43.804Z,67.70
2019-05-14T19:02:18.299Z,67.70
2019-05-14T19:04:50.421Z,67.90
2019-05-14T19:07:23.158Z,68.50
2019-05-14T19:09:58.653Z,68.50
2019-05-14T19:12:30.118Z,68.30
2019-05-14T19:15:01.746Z,68.30
2019-05-14T19:17:34.660Z,68.40
2019-05-14T19:20:08.980Z,68.60
2019-05-14T19:22:40.229Z,68.20
2019-05-14T19:25:12.402Z,68.40
2019-05-14T19:27:44.901Z,69.60
2019-05-14T19:30:19.755Z,69.10
2019-05-14T19:32:51.289Z,69.30
2019-05-14T19:35:23.044Z,69.50
2019-05-14T19:37:54.763Z,69.90
2019-05-14T19:40:28.204Z,70.60
2019-05-14T19:43:01.485Z,70.20
2019-05-14T19:45:33.378Z,69.60
2019-05-14T19:48:08.006Z,69.90
2019-05-14T19:50:39.026Z,70.10
2019-05-14T19:53:11.932Z,70.80
2019-05-14T19:55:45.430Z,71.90
2019-05-14T19:58:20.233Z,72.70
2019-05-14T20:00:50.268Z,71.50
2019-05-14T20:03:23.223Z,70.90
2019-05-14T20:05:54.662Z,71.20
2019-05-14T20:08:29.546Z,70.80
2019-05-14T20:11:01.113Z,70.40
2019-05-14T20:13:34.193Z,71.20
2019-05-14T20:16:05.529Z,71.20
2019-05-14T20:18:38.307Z,71.50
2019-05-14T20:21:09.908Z,71.00
2019-05-14T20:23:41.318Z,70.30
2019-05-14T20:26:14.311Z,70.70
2019-05-14T20:28:48.211Z,70.30
2019-05-14T20:31:19.671Z,70.60
2019-05-14T20:33:53.972Z,70.40
2019-05-14T20:36:28.055Z,70.90
2019-05-14T20:38:59.054Z,72.00
2019-05-14T20:41:30.356Z,72.40
2019-05-14T20:44:01.711Z,72.80
2019-05-14T20:46:33.134Z,72.70
2019-05-14T20:49:04.560Z,71.80
2019-05-14T20:51:38.658Z,72.20
2019-05-14T20:54:10.426Z,72.00
2019-05-14T20:56:41.878Z,71.30
2019-05-14T20:59:13.826Z,70.80
2019-05-14T21:01:45.101Z,71.20
2019-05-14T21:04:18.696Z,71.40
2019-05-14T21:06:49.333Z,71.80
2019-05-14T21:09:25.238Z,72.50
2019-05-14T21:11:57.241Z,72.30
2019-05-14T21:14:31.557Z,73.00
2019-05-14T21:17:03.702Z,73.90
2019-05-14T21:19:35.071Z,73.90
2019-05-14T21:22:08.375Z,73.90
2019-05-14T21:24:40.135Z,73.30
2019-05-14T21:27:13.564Z,73.90
2019-05-14T21:29:44.883Z,73.70
2019-05-14T21:32:16.201Z,74.30
2019-05-14T21:34:49.169Z,74.60
2019-05-14T21:37:22.065Z,74.80
2019-05-14T21:39:53.707Z,73.90
2019-05-14T21:42:25.498Z,72.90
2019-05-14T21:44:58.407Z,73.80
2019-05-14T21:47:32.328Z,74.10
2019-05-14T21:50:05.295Z,74.70
2019-05-14T21:52:42.192Z,74.50
2019-05-14T21:55:15.270Z,74.60
2019-05-14T21:57:57.170Z,74.50
2019-05-14T22:00:32.453Z,75.00
2019-05-14T22:03:10.055Z,75.60
2019-05-14T22:05:40.045Z,76.00
2019-05-14T22:08:12.539Z,76.30
2019-05-14T22:10:44.580Z,75.80
2019-05-14T22:13:15.731Z,75.80
2019-05-14T22:15:49.390Z,75.80
2019-05-14T22:18:22.041Z,76.10
2019-05-14T22:20:54.968Z,77.00
2019-05-14T22:23:29.346Z,77.10
2019-05-14T22:26:01.153Z,77.80
2019-05-14T22:28:34.017Z,77.60
2019-05-14T22:31:09.126Z,77.60
2019-05-14T22:33:41.149Z,77.60
2019-05-14T22:36:12.917Z,77.10
2019-05-14T22:38:44.150Z,76.50
2019-05-14T22:41:38.360Z,76.80
2019-05-14T22:44:11.870Z,76.80
2019-05-14T22:46:43.207Z,76.20
2019-05-14T22:49:14.972Z,75.50
2019-05-14T22:51:49.279Z,75.80
2019-05-14T22:54:21.086Z,76.10
2019-05-14T22:56:58.978Z,75.70
2019-05-14T22:59:33.992Z,76.00
2019-05-14T23:02:08.457Z,76.20
2019-05-14T23:04:39.350Z,76.10
2019-05-14T23:07:14.498Z,75.50
2019-05-14T23:09:48.229Z,75.20
2019-05-14T23:12:21.141Z,75.50
2019-05-14T23:14:55.495Z,75.80
2019-05-14T23:17:28.071Z,76.00
2019-05-14T23:20:01.658Z,76.40
2019-05-14T23:22:53.865Z,77.10
2019-05-14T23:25:25.695Z,77.30
2019-05-14T23:27:59.142Z,77.60
2019-05-14T23:30:34.863Z,78.10
2019-05-14T23:33:07.684Z,78.10
2019-05-14T23:35:40.777Z,78.30
2019-05-14T23:38:14.749Z,78.10
2019-05-14T23:40:49.299Z,77.50
2019-05-14T23:43:21.671Z,77.80
2019-05-14T23:45:55.180Z,78.30
2019-05-14T23:48:28.041Z,78.00
2019-05-14T23:51:00.086Z,78.20
2019-05-14T23:53:34.640Z,78.50
2019-05-14T23:56:08.656Z,78.60
2019-05-14T23:58:54.247Z,78.90
